Time;durP1;ratioP1;P1;durP2;ratioP2;P2;SDS_P1;SDS_P2;PMS_P1;PMS_P2;Temp;Humidity;BMP_temperature;BMP_pressure;BME280_temperature;BME280_humidity;BME280_pressure;Samples;Min_cycle;Max_cycle;Signal;HPM_P1;HPM_P2
2024/01/05 00:02:13;;;;;;;1.57;0.40;;;4.20;99.90;;;;;;5002782;28;20560;-79
2024/01/05 00:04:42;;;;;;;4.93;0.50;;;4.20;99.90;;;;;;5006185;28;20484;-76
2024/01/05 00:07:10;;;;;;;1.30;0.30;;;4.20;99.90;;;;;;5003145;28;20483;-79
2024/01/05 00:09:37;;;;;;;2.00;0.40;;;4.20;99.90;;;;;;5001218;28;20905;-77
2024/01/05 00:12:05;;;;;;;2.00;0.40;;;4.20;99.90;;;;;;5004805;28;20500;-81
2024/01/05 00:14:33;;;;;;;1.40;0.40;;;4.20;99.90;;;;;;5013232;28;20535;-77
2024/01/05 00:17:00;;;;;;;0.60;0.37;;;4.10;99.90;;;;;;5018749;28;20487;-75
2024/01/05 00:19:27;;;;;;;1.77;0.50;;;4.00;99.90;;;;;;5003875;28;20529;-79
2024/01/05 00:21:55;;;;;;;5.93;1.33;;;3.90;99.90;;;;;;5000678;28;20501;-76
2024/01/05 00:24:23;;;;;;;3.03;1.00;;;3.80;99.90;;;;;;5013926;28;20810;-76
2024/01/05 00:26:50;;;;;;;2.83;1.17;;;3.90;99.90;;;;;;5003053;28;20443;-76
2024/01/05 00:29:17;;;;;;;7.10;0.60;;;3.90;99.90;;;;;;5015583;28;20489;-80
2024/01/05 00:31:44;;;;;;;0.80;0.40;;;3.90;99.90;;;;;;5004029;28;20470;-77
2024/01/05 00:34:11;;;;;;;2.53;0.50;;;3.80;99.90;;;;;;5007818;28;20492;-79
2024/01/05 00:36:38;;;;;;;1.80;0.40;;;3.80;99.90;;;;;;5014960;28;20450;-76
2024/01/05 00:39:06;;;;;;;0.80;0.40;;;3.70;99.90;;;;;;5010063;28;20985;-77
2024/01/05 00:41:33;;;;;;;0.57;0.40;;;3.60;99.90;;;;;;5005090;28;20470;-78
2024/01/05 00:44:00;;;;;;;3.70;0.50;;;3.50;99.90;;;;;;5023472;28;20471;-76
2024/01/05 00:46:27;;;;;;;0.43;0.37;;;3.50;99.90;;;;;;5018323;28;20458;-77
2024/01/05 00:48:54;;;;;;;2.73;0.70;;;3.40;99.90;;;;;;5005640;28;20466;-80
2024/01/05 00:51:21;;;;;;;2.93;1.10;;;3.40;99.90;;;;;;5006687;28;20525;-76
2024/01/05 00:53:48;;;;;;;3.13;1.43;;;3.30;99.90;;;;;;4997087;28;20564;-76
2024/01/05 00:56:16;;;;;;;13.13;7.83;;;3.30;99.90;;;;;;5005643;28;20470;-77
2024/01/05 00:58:43;;;;;;;13.80;6.73;;;3.20;99.90;;;;;;5000558;28;20615;-77
2024/01/05 01:01:10;;;;;;;1.67;0.60;;;3.10;99.90;;;;;;5011781;28;20464;-81
2024/01/05 01:03:37;;;;;;;0.70;0.50;;;3.00;99.90;;;;;;5004755;28;20493;-76
2024/01/05 01:06:05;;;;;;;3.33;0.60;;;2.90;99.90;;;;;;5005788;28;20994;-80
2024/01/05 01:08:32;;;;;;;0.70;0.50;;;2.80;99.90;;;;;;5004475;28;20873;-77
2024/01/05 01:11:00;;;;;;;0.60;0.43;;;2.90;99.90;;;;;;5005326;28;21008;-78
2024/01/05 01:13:28;;;;;;;4.03;0.50;;;3.00;99.90;;;;;;5004079;28;20462;-78
2024/01/05 01:15:55;;;;;;;0.50;0.43;;;3.20;99.90;;;;;;5014744;28;20571;-76
2024/01/05 01:18:22;;;;;;;1.30;0.40;;;3.30;99.90;;;;;;5019807;28;21057;-80
2024/01/05 01:20:49;;;;;;;0.90;0.40;;;3.30;99.90;;;;;;5005761;28;20466;-78
2024/01/05 01:23:16;;;;;;;1.63;0.57;;;3.20;99.90;;;;;;5004730;28;20462;-79
2024/01/05 01:25:43;;;;;;;1.30;0.43;;;3.10;99.90;;;;;;5012678;28;20469;-77
2024/01/05 01:28:10;;;;;;;1.37;0.40;;;3.10;99.90;;;;;;5002691;28;20475;-76
2024/01/05 01:30:38;;;;;;;0.60;0.50;;;3.00;99.90;;;;;;4998776;28;20555;-75
2024/01/05 01:33:05;;;;;;;0.70;0.47;;;3.00;99.90;;;;;;5005570;28;20853;-77
2024/01/05 01:35:32;;;;;;;0.70;0.40;;;3.00;99.90;;;;;;5008445;28;20467;-76
2024/01/05 01:37:59;;;;;;;1.37;0.50;;;2.90;99.90;;;;;;5006814;28;20494;-77
2024/01/05 01:40:27;;;;;;;3.33;0.60;;;2.70;99.90;;;;;;5015106;28;20474;-79
2024/01/05 01:42:55;;;;;;;1.83;0.70;;;2.70;99.90;;;;;;5006651;28;20466;-77
2024/01/05 01:45:22;;;;;;;1.57;0.50;;;2.70;99.90;;;;;;5007477;28;20819;-76
2024/01/05 01:47:51;;;;;;;1.00;0.60;;;2.70;99.90;;;;;;5034799;28;20462;-78
2024/01/05 01:50:18;;;;;;;1.47;0.70;;;2.70;99.90;;;;;;5015826;28;20547;-76
2024/01/05 01:52:47;;;;;;;1.40;0.70;;;2.70;99.90;;;;;;5026255;28;20470;-77
2024/01/05 01:55:16;;;;;;;5.27;0.70;;;2.70;99.90;;;;;;5006899;28;20494;-77
2024/01/05 01:57:44;;;;;;;0.60;0.40;;;2.70;99.90;;;;;;5004423;28;21005;-78
2024/01/05 02:00:13;;;;;;;0.83;0.40;;;2.60;99.90;;;;;;5007891;28;20642;-77
2024/01/05 02:02:41;;;;;;;0.90;0.50;;;2.80;99.90;;;;;;4994879;28;20544;-78
2024/01/05 02:05:10;;;;;;;0.90;0.60;;;2.80;99.90;;;;;;5011918;28;20458;-77
2024/01/05 02:07:37;;;;;;;2.83;0.67;;;2.80;99.90;;;;;;5006734;28;20491;-77
2024/01/05 02:10:07;;;;;;;1.03;0.50;;;2.70;99.90;;;;;;5008610;28;20518;-77
2024/01/05 02:12:34;;;;;;;2.83;0.50;;;2.80;99.90;;;;;;5006843;28;20479;-79
2024/01/05 02:15:01;;;;;;;0.73;0.47;;;2.80;99.90;;;;;;5016976;28;20474;-80
2024/01/05 02:17:30;;;;;;;3.90;0.50;;;2.80;99.90;;;;;;5021479;28;21103;-80
2024/01/05 02:19:57;;;;;;;1.47;0.50;;;2.80;99.90;;;;;;5003263;28;20544;-77
2024/01/05 02:22:29;;;;;;;1.27;0.80;;;2.80;99.90;;;;;;5013111;28;20471;-77
2024/01/05 02:24:58;;;;;;;1.70;0.70;;;2.80;99.90;;;;;;5001813;28;21049;-77
2024/01/05 02:27:25;;;;;;;4.43;0.70;;;2.60;99.90;;;;;;5002588;28;20883;-76
2024/01/05 02:29:52;;;;;;;2.30;0.60;;;2.70;99.90;;;;;;5013214;28;20826;-81
2024/01/05 02:32:19;;;;;;;0.97;0.60;;;2.70;99.90;;;;;;5003910;28;20532;-78
2024/01/05 02:34:46;;;;;;;2.30;0.60;;;2.70;99.90;;;;;;5004081;28;21097;-76
2024/01/05 02:37:13;;;;;;;2.93;0.60;;;2.70;99.90;;;;;;5001163;28;20590;-75
2024/01/05 02:39:39;;;;;;;1.00;0.60;;;2.60;99.90;;;;;;5042955;28;20514;-76
2024/01/05 02:42:08;;;;;;;0.80;0.60;;;2.60;99.90;;;;;;5010736;28;20458;-77
2024/01/05 02:44:34;;;;;;;2.50;0.70;;;2.60;99.90;;;;;;5036267;28;20496;-77
2024/01/05 02:47:01;;;;;;;1.10;0.70;;;2.60;99.90;;;;;;5025056;28;20462;-80
2024/01/05 02:49:28;;;;;;;1.90;0.70;;;2.60;99.90;;;;;;5006023;28;20463;-79
2024/01/05 02:51:55;;;;;;;0.60;0.40;;;2.60;99.90;;;;;;5005603;28;20877;-77
2024/01/05 02:54:22;;;;;;;1.43;0.50;;;2.50;99.90;;;;;;5002375;28;20547;-78
2024/01/05 02:56:50;;;;;;;1.00;0.60;;;2.60;99.90;;;;;;5003509;28;20463;-78
2024/01/05 02:59:19;;;;;;;0.70;0.60;;;2.60;99.90;;;;;;5006023;28;20490;-76
2024/01/05 03:01:50;;;;;;;1.30;0.50;;;2.70;99.90;;;;;;4995482;28;20468;-79
2024/01/05 03:04:16;;;;;;;1.17;0.43;;;2.80;99.90;;;;;;5009071;28;20454;-76
2024/01/05 03:06:43;;;;;;;1.13;0.50;;;2.90;99.90;;;;;;5036418;28;20942;-78
2024/01/05 03:09:10;;;;;;;2.10;0.50;;;3.00;99.90;;;;;;4997566;28;21111;-81
2024/01/05 03:11:38;;;;;;;3.77;0.90;;;2.90;99.90;;;;;;5004337;28;20508;-76
2024/01/05 03:14:05;;;;;;;1.10;0.60;;;2.80;99.90;;;;;;5002975;28;21060;-75
2024/01/05 03:16:33;;;;;;;3.33;0.63;;;2.80;99.90;;;;;;5011444;28;20531;-77
2024/01/05 03:19:00;;;;;;;0.93;0.70;;;2.90;99.90;;;;;;5015428;28;20558;-77
2024/01/05 03:21:27;;;;;;;3.83;0.60;;;2.90;99.90;;;;;;5008336;28;20552;-77
2024/01/05 03:23:54;;;;;;;1.17;0.57;;;2.90;99.90;;;;;;5007913;28;20862;-78
2024/01/05 03:26:21;;;;;;;2.93;0.80;;;2.90;99.90;;;;;;5014425;28;20551;-78
2024/01/05 03:28:48;;;;;;;5.90;2.07;;;2.90;99.90;;;;;;5013497;28;20477;-77
2024/01/05 03:31:15;;;;;;;1.87;0.97;;;2.90;99.90;;;;;;5008750;28;20471;-77
2024/01/05 03:33:44;;;;;;;5.63;3.93;;;2.90;99.90;;;;;;5007143;28;21065;-77
2024/01/05 03:36:11;;;;;;;15.10;9.50;;;3.00;99.90;;;;;;5003855;28;20948;-77
2024/01/05 03:38:39;;;;;;;14.60;8.90;;;3.00;99.90;;;;;;4998672;28;20560;-78
2024/01/05 03:41:06;;;;;;;63.43;33.03;;;3.00;99.90;;;;;;5008240;28;20530;-77
2024/01/05 03:43:33;;;;;;;14.50;7.30;;;3.00;99.90;;;;;;5007483;28;20470;-77
2024/01/05 03:45:59;;;;;;;9.60;6.50;;;3.00;99.90;;;;;;5010971;28;20490;-79
2024/01/05 03:48:27;;;;;;;4.17;2.87;;;2.90;99.90;;;;;;5010137;28;21058;-77
2024/01/05 03:50:55;;;;;;;6.47;4.67;;;2.90;99.90;;;;;;5009055;28;20502;-77
2024/01/05 03:53:22;;;;;;;7.00;3.67;;;2.80;99.90;;;;;;5010005;28;20535;-78
2024/01/05 03:55:49;;;;;;;9.87;6.20;;;2.60;99.90;;;;;;5008121;28;20475;-77
2024/01/05 03:58:16;;;;;;;17.37;9.30;;;2.60;99.90;;;;;;4999835;28;20499;-78
2024/01/05 04:00:44;;;;;;;4.63;2.10;;;2.50;99.90;;;;;;5045051;28;20590;-78
2024/01/05 04:03:11;;;;;;;2.33;0.77;;;2.50;99.90;;;;;;4998331;28;20467;-78
2024/01/05 04:05:39;;;;;;;1.13;0.70;;;2.60;99.90;;;;;;4991085;28;20465;-77
2024/01/05 04:08:07;;;;;;;0.70;0.50;;;2.60;99.90;;;;;;4997000;28;20538;-79
2024/01/05 04:10:34;;;;;;;0.90;0.60;;;2.50;99.90;;;;;;5002670;28;21019;-77
2024/01/05 04:13:02;;;;;;;2.30;0.80;;;2.50;99.90;;;;;;5002962;28;20494;-81
2024/01/05 04:15:29;;;;;;;3.77;0.60;;;2.40;99.90;;;;;;5002669;28;20471;-78
2024/01/05 04:17:56;;;;;;;0.73;0.50;;;2.30;99.90;;;;;;5033044;28;20494;-77
2024/01/05 04:20:23;;;;;;;1.53;0.70;;;2.30;99.90;;;;;;5007939;28;20573;-76
2024/01/05 04:22:50;;;;;;;7.03;0.60;;;2.40;99.90;;;;;;5008553;28;20808;-77
2024/01/05 04:25:18;;;;;;;1.60;0.50;;;2.50;99.90;;;;;;5016861;28;20552;-77
2024/01/05 04:27:46;;;;;;;1.33;0.60;;;2.40;99.90;;;;;;5014223;28;20491;-78
2024/01/05 04:30:13;;;;;;;2.17;0.87;;;2.40;99.90;;;;;;5010512;28;20504;-80
2024/01/05 04:32:40;;;;;;;1.00;0.60;;;2.40;99.90;;;;;;5008945;28;20466;-77
2024/01/05 04:35:08;;;;;;;2.30;1.27;;;2.60;99.90;;;;;;5010261;28;21162;-77
2024/01/05 04:37:35;;;;;;;1.40;1.10;;;2.60;99.90;;;;;;5007515;28;20981;-77
2024/01/05 04:40:06;;;;;;;0.90;0.70;;;2.70;99.90;;;;;;5011970;28;20485;-78
2024/01/05 04:42:34;;;;;;;1.00;0.80;;;2.70;99.90;;;;;;5000668;28;20830;-77
2024/01/05 04:45:02;;;;;;;2.40;0.70;;;2.70;99.90;;;;;;5012874;28;20475;-77
2024/01/05 04:47:31;;;;;;;1.20;0.60;;;2.70;99.90;;;;;;5018225;28;20470;-76
2024/01/05 04:49:58;;;;;;;3.07;0.90;;;2.70;99.90;;;;;;5012285;28;20769;-76
2024/01/05 04:52:25;;;;;;;1.13;0.80;;;2.60;99.90;;;;;;5008187;28;20543;-77
2024/01/05 04:54:52;;;;;;;0.97;0.60;;;2.50;99.90;;;;;;5009251;28;20534;-77
2024/01/05 04:57:19;;;;;;;1.07;0.77;;;2.60;99.90;;;;;;5013921;28;20549;-75
2024/01/05 04:59:48;;;;;;;1.60;0.63;;;2.60;99.90;;;;;;4997726;28;20539;-79
2024/01/05 05:02:15;;;;;;;1.73;0.70;;;2.70;99.90;;;;;;5020188;28;20473;-77
2024/01/05 05:04:42;;;;;;;3.67;0.60;;;2.70;99.90;;;;;;5009130;28;20470;-81
2024/01/05 05:07:09;;;;;;;1.10;0.70;;;2.70;99.90;;;;;;5013790;28;20471;-77
2024/01/05 05:09:35;;;;;;;1.87;0.70;;;2.70;99.90;;;;;;5011424;28;20857;-75
2024/01/05 05:12:03;;;;;;;0.80;0.60;;;2.70;99.90;;;;;;5008051;28;20637;-77
2024/01/05 05:14:30;;;;;;;1.80;0.50;;;2.70;99.90;;;;;;5008589;28;20558;-78
2024/01/05 05:16:58;;;;;;;0.77;0.70;;;2.60;99.90;;;;;;5005649;28;21049;-79
2024/01/05 05:19:25;;;;;;;3.10;0.93;;;2.50;99.90;;;;;;5017738;28;20535;-79
2024/01/05 05:21:52;;;;;;;1.67;0.60;;;2.50;99.90;;;;;;5017580;28;20530;-77
2024/01/05 05:24:19;;;;;;;1.27;0.60;;;2.40;99.90;;;;;;5007698;28;20543;-79
2024/01/05 05:26:46;;;;;;;1.93;0.63;;;2.30;99.90;;;;;;5023314;28;20551;-80
2024/01/05 05:29:13;;;;;;;5.60;0.70;;;2.40;99.90;;;;;;5012704;28;20482;-78
2024/01/05 05:31:40;;;;;;;5.97;0.80;;;2.50;99.90;;;;;;5011721;28;20546;-79
2024/01/05 05:34:08;;;;;;;1.13;0.60;;;2.60;99.90;;;;;;5005804;28;20512;-86
2024/01/05 05:36:35;;;;;;;4.97;0.70;;;2.70;99.90;;;;;;5012522;28;21266;-75
2024/01/05 05:39:02;;;;;;;5.53;0.70;;;2.70;99.90;;;;;;5055306;28;21306;-76
2024/01/05 05:41:29;;;;;;;1.30;0.67;;;2.80;99.90;;;;;;5030606;28;20490;-77
2024/01/05 05:43:56;;;;;;;0.90;0.70;;;2.80;99.90;;;;;;5010832;28;20466;-76
2024/01/05 05:46:23;;;;;;;3.57;0.60;;;2.70;99.90;;;;;;5008245;28;20479;-76
2024/01/05 05:48:50;;;;;;;1.20;0.70;;;2.60;99.90;;;;;;5026485;28;20491;-75
2024/01/05 05:51:18;;;;;;;0.80;0.80;;;2.60;99.90;;;;;;5033036;28;20508;-76
2024/01/05 05:53:45;;;;;;;2.30;0.80;;;2.50;99.90;;;;;;5034904;28;20560;-76
2024/01/05 05:56:12;;;;;;;0.70;0.50;;;2.40;99.90;;;;;;5055551;28;20582;-80
2024/01/05 05:58:39;;;;;;;1.63;0.53;;;2.40;99.90;;;;;;5010330;28;20489;-76
2024/01/05 06:01:06;;;;;;;2.97;0.60;;;2.50;99.90;;;;;;5016074;28;20490;-77
2024/01/05 06:03:33;;;;;;;2.30;0.60;;;2.40;99.90;;;;;;5002673;28;21123;-81
2024/01/05 06:06:00;;;;;;;1.30;0.60;;;2.40;99.90;;;;;;5017466;28;20574;-76
2024/01/05 06:08:28;;;;;;;1.47;1.20;;;2.30;99.90;;;;;;4995482;28;20952;-77
2024/01/05 06:10:55;;;;;;;1.93;0.80;;;2.40;99.90;;;;;;5032469;28;20881;-76
2024/01/05 06:13:22;;;;;;;0.70;0.50;;;2.40;99.90;;;;;;5038547;28;20555;-80
2024/01/05 06:15:49;;;;;;;2.80;0.70;;;2.40;99.90;;;;;;5008051;28;20506;-77
2024/01/05 06:18:16;;;;;;;1.23;0.70;;;2.40;99.90;;;;;;5017689;28;20518;-81
2024/01/05 06:20:43;;;;;;;0.73;0.60;;;2.40;99.90;;;;;;5012704;28;21073;-79
2024/01/05 06:23:10;;;;;;;2.00;0.67;;;2.40;99.90;;;;;;5010749;28;20467;-76
2024/01/05 06:25:38;;;;;;;3.00;0.90;;;2.40;99.90;;;;;;5011289;28;21027;-77
2024/01/05 06:28:05;;;;;;;6.03;0.93;;;2.30;99.90;;;;;;5008704;28;21005;-75
2024/01/05 06:30:32;;;;;;;2.70;1.00;;;2.30;99.90;;;;;;5005653;28;20499;-83
2024/01/05 06:32:59;;;;;;;4.03;1.00;;;2.30;99.90;;;;;;5015048;28;20490;-85
2024/01/05 06:35:26;;;;;;;0.80;0.70;;;2.30;99.90;;;;;;5021348;28;20545;-77
2024/01/05 06:37:53;;;;;;;1.20;1.00;;;2.30;99.90;;;;;;5008961;28;20466;-75
2024/01/05 06:40:20;;;;;;;1.83;1.27;;;2.30;99.90;;;;;;5007223;28;20522;-76
2024/01/05 06:42:49;;;;;;;3.60;1.37;;;2.40;99.90;;;;;;5004450;28;20463;-76
2024/01/05 06:45:16;;;;;;;2.40;0.70;;;2.40;99.90;;;;;;5026423;28;20546;-81
2024/01/05 06:47:43;;;;;;;2.70;1.00;;;2.40;99.90;;;;;;5008990;28;20502;-80
2024/01/05 06:50:11;;;;;;;3.33;0.90;;;2.40;99.90;;;;;;5015079;28;20527;-80
2024/01/05 06:52:38;;;;;;;3.17;1.60;;;2.40;99.90;;;;;;5000389;28;21051;-81
2024/01/05 06:55:05;;;;;;;2.27;1.30;;;2.40;99.90;;;;;;5012483;28;20493;-79
2024/01/05 06:57:35;;;;;;;2.77;1.63;;;2.40;99.90;;;;;;5013446;28;20451;-80
2024/01/05 07:00:04;;;;;;;0.70;0.70;;;2.40;99.90;;;;;;5016104;28;20492;-79
2024/01/05 07:02:31;;;;;;;3.90;1.30;;;2.40;99.90;;;;;;4995386;28;20451;-81
2024/01/05 07:04:58;;;;;;;1.43;0.67;;;2.40;99.90;;;;;;5003235;28;20462;-84
2024/01/05 07:07:25;;;;;;;1.57;1.47;;;2.50;99.90;;;;;;5018934;28;20523;-81
2024/01/05 07:09:52;;;;;;;2.30;0.80;;;2.50;99.90;;;;;;5005388;28;20515;-81
2024/01/05 07:12:19;;;;;;;1.20;0.70;;;2.60;99.90;;;;;;5021037;28;20463;-80
2024/01/05 07:14:47;;;;;;;2.30;0.80;;;2.60;99.90;;;;;;5014224;28;21020;-81
2024/01/05 07:17:16;;;;;;;1.13;0.60;;;2.70;99.90;;;;;;5016945;28;21182;-80
2024/01/05 07:19:44;;;;;;;1.23;0.80;;;2.90;99.90;;;;;;5031103;28;20682;-80
2024/01/05 07:22:11;;;;;;;0.70;0.70;;;2.90;99.90;;;;;;5044759;28;20492;-80
2024/01/05 07:24:38;;;;;;;3.03;0.77;;;2.90;99.90;;;;;;5045298;28;20872;-80
2024/01/05 07:27:06;;;;;;;2.30;0.70;;;2.90;99.90;;;;;;5010400;28;20950;-81
2024/01/05 07:29:32;;;;;;;1.40;1.17;;;3.00;99.90;;;;;;5030884;28;20890;-79
2024/01/05 07:31:59;;;;;;;1.80;1.30;;;3.00;99.90;;;;;;5042789;28;20458;-79
2024/01/05 07:34:28;;;;;;;1.10;0.83;;;3.00;99.90;;;;;;5036583;28;20469;-79
2024/01/05 07:36:55;;;;;;;1.57;0.80;;;3.10;99.90;;;;;;4998008;28;20488;-80
2024/01/05 07:39:21;;;;;;;2.30;1.30;;;3.20;99.90;;;;;;5027760;28;20547;-80
2024/01/05 07:41:50;;;;;;;4.10;1.13;;;3.30;99.90;;;;;;5005038;28;20491;-80
2024/01/05 07:44:17;;;;;;;1.20;0.83;;;3.30;99.90;;;;;;5004322;28;20829;-81
2024/01/05 07:46:45;;;;;;;0.70;0.67;;;3.40;99.90;;;;;;5025552;28;20458;-82
2024/01/05 07:49:12;;;;;;;1.00;0.70;;;3.30;99.90;;;;;;5000686;28;20477;-80
2024/01/05 07:51:41;;;;;;;2.07;0.93;;;3.40;99.90;;;;;;5036028;28;20447;-79
2024/01/05 07:54:08;;;;;;;1.07;0.97;;;3.40;99.90;;;;;;5026561;28;20462;-84
2024/01/05 07:56:38;;;;;;;1.50;1.30;;;3.50;99.90;;;;;;5028243;28;20501;-80
2024/01/05 07:59:05;;;;;;;5.93;1.23;;;3.50;99.90;;;;;;5028493;28;20558;-80
2024/01/05 08:01:32;;;;;;;8.07;5.53;;;3.60;99.90;;;;;;5034693;28;20510;-79
2024/01/05 08:03:59;;;;;;;4.07;3.07;;;3.70;99.90;;;;;;5017398;28;20871;-82
2024/01/05 08:06:26;;;;;;;7.97;4.83;;;3.70;99.90;;;;;;5004701;28;20463;-80
2024/01/05 08:08:55;;;;;;;3.00;2.73;;;3.70;99.90;;;;;;5022950;28;20526;-79
2024/01/05 08:11:22;;;;;;;10.67;8.10;;;3.70;99.90;;;;;;5023924;28;20511;-82
2024/01/05 08:13:49;;;;;;;20.07;13.67;;;3.80;99.90;;;;;;5005763;28;20574;-83
2024/01/05 08:16:16;;;;;;;19.40;9.20;;;3.80;99.90;;;;;;5001423;28;20613;-81
2024/01/05 08:18:43;;;;;;;7.37;3.70;;;3.80;99.90;;;;;;5015533;28;21115;-80
2024/01/05 08:21:10;;;;;;;4.50;0.90;;;3.80;99.90;;;;;;5009242;28;20514;-80
2024/01/05 08:23:37;;;;;;;5.87;1.60;;;3.80;99.90;;;;;;5003738;28;20482;-79
2024/01/05 08:26:06;;;;;;;23.70;9.80;;;3.80;99.90;;;;;;5007800;28;20525;-80
2024/01/05 08:28:33;;;;;;;4.97;2.50;;;3.80;99.90;;;;;;5028856;28;20497;-81
2024/01/05 08:31:00;;;;;;;5.97;1.90;;;3.80;99.90;;;;;;4995281;28;20559;-84
2024/01/05 08:33:27;;;;;;;8.87;4.13;;;4.00;99.90;;;;;;5038229;28;20453;-80
2024/01/05 08:35:54;;;;;;;5.40;2.67;;;4.10;99.90;;;;;;5022481;28;20447;-80
2024/01/05 08:38:21;;;;;;;1.00;0.70;;;4.20;99.90;;;;;;5032924;28;21233;-84
2024/01/05 08:40:50;;;;;;;1.80;1.00;;;4.20;99.90;;;;;;5003035;28;20495;-80
2024/01/05 08:43:19;;;;;;;1.30;1.20;;;4.20;99.90;;;;;;5036503;28;20537;-80
2024/01/05 08:45:46;;;;;;;3.47;0.80;;;4.10;99.90;;;;;;5010881;28;20516;-80
2024/01/05 08:48:14;;;;;;;21.20;12.40;;;4.10;99.90;;;;;;5015867;28;20516;-80
2024/01/05 08:50:41;;;;;;;3.80;2.63;;;4.30;99.90;;;;;;5018247;28;20470;-86
2024/01/05 08:53:09;;;;;;;34.33;22.80;;;4.30;99.90;;;;;;5007032;28;21219;-82
2024/01/05 08:55:36;;;;;;;41.87;31.90;;;4.40;99.90;;;;;;5006591;28;20455;-79
2024/01/05 08:58:04;;;;;;;13.97;12.33;;;4.60;99.90;;;;;;5021648;28;20558;-80
2024/01/05 09:00:32;;;;;;;1.80;1.00;;;4.60;99.90;;;;;;5019975;28;21226;-84
2024/01/05 09:02:59;;;;;;;11.13;8.30;;;4.60;99.90;;;;;;5021077;28;20524;-80
2024/01/05 09:05:26;;;;;;;10.37;6.80;;;4.70;99.90;;;;;;5014987;28;20467;-81
2024/01/05 09:07:54;;;;;;;7.07;6.30;;;4.70;99.90;;;;;;5017452;28;20481;-83
2024/01/05 09:10:21;;;;;;;9.13;8.13;;;4.70;99.90;;;;;;5025704;28;20554;-79
2024/01/05 09:12:47;;;;;;;3.03;2.47;;;4.70;99.90;;;;;;5030708;28;21009;-80
2024/01/05 09:15:15;;;;;;;2.97;2.30;;;4.80;99.90;;;;;;5020936;28;20472;-82
2024/01/05 09:17:44;;;;;;;6.40;3.47;;;4.70;99.90;;;;;;5014843;28;20582;-82
2024/01/05 09:20:13;;;;;;;4.90;2.80;;;4.80;99.90;;;;;;5026394;28;20466;-80
2024/01/05 09:22:40;;;;;;;3.40;2.00;;;4.70;99.90;;;;;;5026037;28;20491;-81
2024/01/05 09:25:09;;;;;;;3.47;2.70;;;4.80;99.90;;;;;;5005264;28;20471;-84
2024/01/05 09:27:36;;;;;;;4.20;2.40;;;5.00;99.90;;;;;;5015288;28;20476;-82
2024/01/05 09:30:04;;;;;;;3.67;2.43;;;5.10;99.90;;;;;;5006362;28;20913;-81
2024/01/05 09:32:31;;;;;;;1.43;1.30;;;5.30;99.90;;;;;;5005132;28;20531;-79
2024/01/05 09:34:59;;;;;;;2.50;2.30;;;5.40;99.90;;;;;;5016600;28;20511;-80
2024/01/05 09:37:26;;;;;;;4.97;3.40;;;5.50;99.90;;;;;;5010571;28;21271;-79
2024/01/05 09:39:53;;;;;;;4.00;2.27;;;5.60;99.90;;;;;;5065989;28;20513;-79
2024/01/05 09:42:20;;;;;;;1.40;1.30;;;5.70;99.90;;;;;;5013141;28;20490;-80
2024/01/05 09:44:51;;;;;;;4.03;1.80;;;5.70;99.90;;;;;;5026080;28;20458;-78
2024/01/05 09:47:19;;;;;;;6.50;1.57;;;5.80;99.90;;;;;;5011540;28;21040;-79
2024/01/05 09:49:49;;;;;;;2.50;2.00;;;5.80;99.90;;;;;;5030624;28;20870;-81
2024/01/05 09:52:20;;;;;;;1.73;1.13;;;6.00;99.90;;;;;;5019110;28;20492;-79
2024/01/05 09:54:47;;;;;;;2.27;1.00;;;6.10;99.90;;;;;;5017364;28;20490;-79
2024/01/05 09:57:18;;;;;;;0.80;0.80;;;6.30;99.90;;;;;;5022283;28;20537;-79
2024/01/05 09:59:47;;;;;;;2.00;1.27;;;6.30;99.90;;;;;;5019000;28;20491;-80
2024/01/05 10:02:21;;;;;;;1.83;1.20;;;6.10;99.90;;;;;;5048099;28;20576;-80
2024/01/05 10:04:48;;;;;;;2.63;1.10;;;6.10;99.90;;;;;;5021200;28;20818;-80
2024/01/05 10:07:16;;;;;;;2.23;0.90;;;6.10;99.90;;;;;;5021846;28;20569;-79
2024/01/05 10:09:52;;;;;;;3.60;0.90;;;6.20;99.90;;;;;;5014691;28;20548;-81
2024/01/05 10:12:19;;;;;;;3.80;1.00;;;6.30;99.90;;;;;;5012762;28;20554;-80
2024/01/05 10:14:47;;;;;;;4.10;2.13;;;6.20;99.90;;;;;;5030991;28;20480;-80
2024/01/05 10:17:15;;;;;;;3.47;2.33;;;6.30;99.90;;;;;;5020723;28;20484;-79
2024/01/05 10:19:42;;;;;;;3.30;1.50;;;6.30;99.90;;;;;;5018272;28;20473;-80
2024/01/05 10:22:10;;;;;;;2.70;2.50;;;6.40;99.90;;;;;;5028388;28;20547;-78
2024/01/05 10:24:38;;;;;;;3.00;2.13;;;6.30;99.90;;;;;;5062865;28;20513;-79
2024/01/05 10:27:08;;;;;;;3.80;3.27;;;6.10;99.90;;;;;;5049078;28;20530;-80
2024/01/05 10:29:37;;;;;;;5.87;2.63;;;6.00;99.90;;;;;;5055302;28;20445;-78
2024/01/05 10:32:12;;;;;;;4.63;2.43;;;5.90;99.90;;;;;;5032851;28;20471;-79
2024/01/05 10:34:40;;;;;;;2.83;1.70;;;5.80;99.90;;;;;;5011290;28;20473;-76
2024/01/05 10:37:08;;;;;;;4.40;1.83;;;5.60;99.90;;;;;;5044235;28;21032;-81
2024/01/05 10:39:35;;;;;;;6.03;2.33;;;5.60;99.90;;;;;;5036363;28;20497;-78
2024/01/05 10:42:22;;;;;;;6.43;4.00;;;5.80;99.90;;;;;;5070901;28;20570;-78
2024/01/05 10:44:51;;;;;;;4.07;1.93;;;5.90;99.90;;;;;;5034110;28;20468;-82
2024/01/05 10:47:20;;;;;;;3.97;3.00;;;5.90;99.90;;;;;;5048350;28;20469;-78
2024/01/05 10:49:49;;;;;;;4.17;3.37;;;5.80;99.90;;;;;;5020485;28;20483;-79
2024/01/05 10:52:17;;;;;;;6.30;2.60;;;5.80;99.90;;;;;;5013597;28;20497;-79
2024/01/05 10:54:49;;;;;;;7.73;2.40;;;5.90;99.90;;;;;;5059640;28;20443;-79
2024/01/05 10:57:18;;;;;;;3.07;1.70;;;6.00;99.90;;;;;;5012200;28;20547;-79
2024/01/05 10:59:47;;;;;;;3.80;1.83;;;6.00;99.90;;;;;;5043737;28;20445;-78
2024/01/05 11:02:24;;;;;;;5.30;2.00;;;6.20;99.90;;;;;;5016569;28;21055;-80
2024/01/05 11:05:00;;;;;;;7.53;2.33;;;6.30;99.90;;;;;;5033833;28;20465;-79
2024/01/05 11:07:32;;;;;;;5.33;1.40;;;6.40;99.90;;;;;;5028192;28;20447;-80
2024/01/05 11:10:10;;;;;;;2.17;1.97;;;6.50;99.90;;;;;;5007586;28;20539;-79
2024/01/05 11:12:55;;;;;;;3.27;2.00;;;6.40;99.90;;;;;;5011640;28;20489;-79
2024/01/05 11:15:40;;;;;;;3.43;2.97;;;6.20;99.90;;;;;;5006181;28;20463;-80
2024/01/05 11:18:36;;;;;;;1.87;1.60;;;6.10;99.90;;;;;;5009947;28;20465;-79
2024/01/05 11:21:11;;;;;;;3.10;2.00;;;6.20;99.90;;;;;;5015742;28;20471;-84
2024/01/05 11:23:44;;;;;;;2.60;2.07;;;6.20;99.90;;;;;;5006412;28;20893;-82
2024/01/05 11:26:34;;;;;;;3.70;2.87;;;6.20;99.90;;;;;;5042073;28;20859;-80
2024/01/05 11:29:02;;;;;;;8.40;5.03;;;6.20;99.90;;;;;;5014203;28;21381;-85
2024/01/05 11:32:03;;;;;;;3.80;2.70;;;6.20;99.90;;;;;;5008408;28;20464;-79
2024/01/05 11:34:35;;;;;;;6.20;4.47;;;6.00;99.90;;;;;;5025392;28;20459;-80
2024/01/05 11:37:01;;;;;;;5.00;3.33;;;6.00;99.90;;;;;;5023729;28;20488;-79
2024/01/05 11:39:43;;;;;;;11.20;7.50;;;5.80;99.90;;;;;;5005669;28;20462;-80
2024/01/05 11:42:11;;;;;;;7.40;3.97;;;5.70;99.90;;;;;;5016003;28;20482;-80
2024/01/05 11:44:38;;;;;;;10.80;5.87;;;5.70;99.90;;;;;;5022819;28;20496;-84
2024/01/05 11:47:06;;;;;;;5.27;3.37;;;5.60;99.90;;;;;;5034360;28;20512;-79
2024/01/05 11:49:37;;;;;;;11.43;7.33;;;5.60;99.90;;;;;;5019433;28;20501;-80
2024/01/05 11:52:05;;;;;;;7.33;5.13;;;5.40;99.90;;;;;;5025124;28;21077;-81
2024/01/05 11:54:33;;;;;;;6.80;6.20;;;5.30;99.90;;;;;;5008466;28;21008;-79
2024/01/05 11:57:01;;;;;;;3.70;3.13;;;5.30;99.90;;;;;;5019325;28;20966;-78
2024/01/05 11:59:28;;;;;;;4.23;3.47;;;5.40;99.90;;;;;;5013670;28;20515;-80
2024/01/05 12:01:55;;;;;;;15.17;8.67;;;5.50;99.90;;;;;;5018641;28;20578;-80
2024/01/05 12:04:23;;;;;;;12.23;8.77;;;5.60;99.90;;;;;;5010381;28;20544;-79
2024/01/05 12:06:53;;;;;;;12.43;7.93;;;5.60;99.90;;;;;;5002670;28;20512;-79
2024/01/05 12:09:21;;;;;;;5.10;4.07;;;5.50;99.90;;;;;;5021327;28;20499;-80
2024/01/05 12:11:48;;;;;;;3.23;2.93;;;5.50;99.90;;;;;;5022454;28;22084;-79
2024/01/05 12:14:26;;;;;;;6.47;3.60;;;5.60;99.90;;;;;;5032433;28;20452;-80
2024/01/05 12:16:53;;;;;;;4.87;1.60;;;5.70;99.90;;;;;;5006510;28;20496;-77
2024/01/05 12:19:21;;;;;;;2.53;1.90;;;5.70;99.90;;;;;;5004717;28;20811;-79
2024/01/05 12:21:52;;;;;;;5.63;3.10;;;5.80;99.90;;;;;;5013760;28;20586;-79
2024/01/05 12:24:20;;;;;;;5.60;1.50;;;5.80;99.90;;;;;;5004305;28;20997;-79
2024/01/05 12:26:48;;;;;;;2.20;1.83;;;5.80;99.90;;;;;;5025816;28;20538;-79
2024/01/05 12:29:15;;;;;;;3.33;1.33;;;6.00;99.90;;;;;;5003567;28;21018;-79
2024/01/05 12:31:42;;;;;;;11.83;7.00;;;6.00;99.90;;;;;;4995332;28;20463;-79
2024/01/05 12:34:10;;;;;;;10.33;6.60;;;6.00;99.90;;;;;;4995417;28;20847;-79
2024/01/05 12:36:37;;;;;;;19.50;11.30;;;6.00;99.90;;;;;;5000700;28;20752;-81
2024/01/05 12:39:12;;;;;;;4.20;3.57;;;6.10;99.90;;;;;;5001841;28;20469;-78
2024/01/05 12:41:42;;;;;;;12.00;8.37;;;6.20;99.90;;;;;;5001641;28;20466;-81
2024/01/05 12:44:10;;;;;;;5.13;1.90;;;6.30;99.90;;;;;;5007205;28;20876;-82
2024/01/05 12:46:47;;;;;;;4.40;2.03;;;6.40;99.90;;;;;;5010108;28;20473;-78
2024/01/05 12:49:25;;;;;;;8.70;3.20;;;6.50;99.90;;;;;;4994204;28;21040;-79
2024/01/05 12:51:52;;;;;;;3.63;2.13;;;6.60;99.90;;;;;;5007316;28;20546;-78
2024/01/05 12:54:21;;;;;;;2.90;1.70;;;6.70;99.90;;;;;;5022415;28;20470;-79
2024/01/05 12:56:50;;;;;;;3.17;1.90;;;6.90;99.90;;;;;;5022757;28;20557;-79
2024/01/05 12:59:21;;;;;;;2.17;1.77;;;6.90;99.90;;;;;;5016722;28;20469;-79
2024/01/05 13:01:48;;;;;;;2.53;1.40;;;6.90;99.90;;;;;;5021576;28;20470;-79